createdAt,value
2023-01-12T00:01:57.033Z,5.30
2023-01-12T00:04:24.230Z,5.40
2023-01-12T00:06:51.254Z,5.70
2023-01-12T00:09:18.190Z,7.50
2023-01-12T00:11:45.182Z,5.40
2023-01-12T00:14:12.171Z,6.90
2023-01-12T00:16:40.362Z,5.40
2023-01-12T00:19:17.528Z,5.20
2023-01-12T00:21:58.349Z,5.50
2023-01-12T00:24:33.988Z,5.60
2023-01-12T00:27:05.034Z,5.10
2023-01-12T00:29:32.427Z,4.50
2023-01-12T00:32:00.295Z,6.90
2023-01-12T00:34:29.570Z,4.80
2023-01-12T00:36:59.115Z,5.30
2023-01-12T00:39:26.276Z,3.90
2023-01-12T00:42:11.816Z,3.80
2023-01-12T00:44:57.179Z,5.00
2023-01-12T00:47:24.295Z,5.10
2023-01-12T00:49:51.251Z,3.90
2023-01-12T00:52:35.509Z,4.40
2023-01-12T00:55:02.761Z,4.40
2023-01-12T00:57:29.771Z,3.50
2023-01-12T00:59:57.476Z,4.70
2023-01-12T01:02:25.131Z,3.70
2023-01-12T01:04:52.252Z,3.80
2023-01-12T01:07:20.943Z,3.90
2023-01-12T01:09:47.962Z,3.30
2023-01-12T01:12:14.997Z,3.40
2023-01-12T01:14:41.926Z,3.30
2023-01-12T01:17:08.954Z,3.70
2023-01-12T01:19:36.374Z,3.60
2023-01-12T01:22:03.472Z,4.50
2023-01-12T01:24:30.548Z,4.80
2023-01-12T01:26:57.644Z,5.10
2023-01-12T01:29:24.630Z,5.80
2023-01-12T01:31:54.533Z,5.90
2023-01-12T01:34:23.135Z,3.70
2023-01-12T01:36:50.017Z,4.10
2023-01-12T01:39:17.053Z,3.80
2023-01-12T01:41:44.001Z,4.70
2023-01-12T01:44:29.401Z,4.30
2023-01-12T01:47:12.059Z,5.60
2023-01-12T01:49:43.873Z,4.10
2023-01-12T01:52:18.517Z,4.50
2023-01-12T01:55:03.005Z,5.10
2023-01-12T01:57:36.563Z,6.60
2023-01-12T02:00:11.590Z,5.80
2023-01-12T02:02:40.458Z,4.20
2023-01-12T02:05:08.686Z,5.20
2023-01-12T02:07:35.673Z,8.00
2023-01-12T02:10:03.485Z,4.90
2023-01-12T02:12:49.661Z,6.50
2023-01-12T02:15:35.180Z,5.60
2023-01-12T02:18:20.648Z,3.80
2023-01-12T02:21:06.275Z,5.00
2023-01-12T02:24:03.658Z,3.50
2023-01-12T02:26:55.609Z,4.50
2023-01-12T02:29:28.807Z,4.40
2023-01-12T02:32:19.293Z,4.90
2023-01-12T02:35:01.288Z,4.40
2023-01-12T02:37:48.495Z,3.90
2023-01-12T02:40:41.793Z,5.30
2023-01-12T02:43:33.496Z,3.90
2023-01-12T02:46:06.436Z,3.70
2023-01-12T02:48:38.345Z,4.90
2023-01-12T02:51:11.332Z,4.80
2023-01-12T02:53:49.768Z,4.00
2023-01-12T02:56:39.444Z,4.60
2023-01-12T02:59:28.641Z,6.30
2023-01-12T03:02:03.797Z,4.20
2023-01-12T03:04:31.926Z,4.50
2023-01-12T03:06:58.818Z,3.90
2023-01-12T03:09:34.181Z,6.10
2023-01-12T03:12:06.558Z,6.20
2023-01-12T03:14:36.864Z,6.50
2023-01-12T03:17:10.619Z,6.80
2023-01-12T03:19:40.072Z,7.90
2023-01-12T03:22:10.950Z,7.80
2023-01-12T03:27:18.431Z,5.90
2023-01-12T03:29:56.478Z,5.40
2023-01-12T03:32:24.292Z,5.80
2023-01-12T03:34:51.560Z,9.80
2023-01-12T03:37:30.755Z,6.40
2023-01-12T03:40:10.527Z,7.70
2023-01-12T03:42:43.408Z,7.40
2023-01-12T03:45:25.662Z,5.90
2023-01-12T03:48:02.533Z,6.40
2023-01-12T03:50:45.819Z,6.60
2023-01-12T03:53:15.399Z,8.30
2023-01-12T03:55:43.693Z,6.40
2023-01-12T03:58:10.849Z,5.70
2023-01-12T04:00:38.244Z,5.70
2023-01-12T04:03:11.891Z,6.60
2023-01-12T04:05:39.786Z,6.10
2023-01-12T04:08:07.758Z,7.70
2023-01-12T04:10:35.142Z,6.20
2023-01-12T04:13:02.100Z,6.30
2023-01-12T04:15:29.181Z,7.30
2023-01-12T04:17:56.209Z,9.30
2023-01-12T04:20:23.193Z,8.40
2023-01-12T04:22:50.137Z,10.00
2023-01-12T04:25:20.098Z,8.40
2023-01-12T04:27:49.284Z,7.50
2023-01-12T04:30:19.668Z,7.30
2023-01-12T04:32:46.650Z,6.70
2023-01-12T04:35:13.808Z,8.00
2023-01-12T04:37:40.740Z,8.00
2023-01-12T04:40:09.347Z,11.30
2023-01-12T04:42:55.185Z,9.70
2023-01-12T04:45:22.349Z,7.40
2023-01-12T04:47:49.315Z,9.50
2023-01-12T04:50:16.247Z,8.50
2023-01-12T04:52:43.168Z,7.60
2023-01-12T04:55:10.208Z,7.70
2023-01-12T04:57:37.172Z,8.10
2023-01-12T05:00:05.631Z,6.80
2023-01-12T05:02:32.615Z,7.20
2023-01-12T05:04:59.614Z,6.10
2023-01-12T05:07:26.517Z,6.70
2023-01-12T05:10:11.808Z,7.50
2023-01-12T05:12:38.757Z,8.70
2023-01-12T05:15:06.436Z,8.40
2023-01-12T05:17:33.392Z,10.20
2023-01-12T05:20:01.012Z,7.50
2023-01-12T05:22:28.263Z,9.00
2023-01-12T05:24:55.194Z,7.00
2023-01-12T05:27:22.147Z,6.90
2023-01-12T05:29:49.111Z,7.60
2023-01-12T05:32:16.171Z,7.10
2023-01-12T05:34:43.074Z,7.30
2023-01-12T05:37:10.041Z,8.60
2023-01-12T05:39:37.083Z,7.20
2023-01-12T05:42:22.585Z,6.40
2023-01-12T05:44:49.516Z,9.60
2023-01-12T05:47:16.456Z,7.80
2023-01-12T05:49:43.384Z,8.40
2023-01-12T05:52:10.380Z,8.40
2023-01-12T05:54:37.442Z,8.50
2023-01-12T05:57:04.447Z,7.50
2023-01-12T05:59:31.425Z,8.20
2023-01-12T06:01:58.337Z,7.10
2023-01-12T06:04:25.654Z,7.20
2023-01-12T06:06:52.768Z,7.00
2023-01-12T06:09:19.717Z,6.00
2023-01-12T06:12:05.641Z,5.90
2023-01-12T06:14:32.919Z,6.30
2023-01-12T06:16:59.886Z,5.70
2023-01-12T06:19:26.897Z,6.30
2023-01-12T06:21:54.733Z,6.00
2023-01-12T06:24:21.753Z,7.10
2023-01-12T06:26:48.686Z,7.40
2023-01-12T06:29:15.638Z,6.90
2023-01-12T06:31:43.311Z,7.10
2023-01-12T06:34:11.469Z,8.60
2023-01-12T06:36:38.992Z,6.30
2023-01-12T06:39:06.064Z,9.40
2023-01-12T06:41:52.920Z,8.60
2023-01-12T06:44:19.926Z,6.90
2023-01-12T06:46:47.611Z,6.60
2023-01-12T06:49:16.080Z,8.40
2023-01-12T06:51:43.749Z,7.20
2023-01-12T06:54:10.672Z,22.30
2023-01-12T06:56:37.702Z,8.20
2023-01-12T06:59:04.678Z,9.40
2023-01-12T07:01:31.962Z,8.40
2023-01-12T07:03:59.014Z,14.80
2023-01-12T07:06:26.024Z,10.90
2023-01-12T07:08:53.485Z,10.40
2023-01-12T07:11:20.472Z,8.60
2023-01-12T07:13:47.386Z,7.50
2023-01-12T07:16:14.360Z,10.70
2023-01-12T07:18:41.370Z,9.00
2023-01-12T07:21:10.108Z,9.20
2023-01-12T07:23:37.895Z,9.50
2023-01-12T07:26:04.924Z,8.70
2023-01-12T07:28:33.218Z,7.90
2023-01-12T07:31:01.693Z,8.10
2023-01-12T07:33:28.947Z,8.60
2023-01-12T07:36:00.309Z,10.20
2023-01-12T07:38:28.944Z,9.60
2023-01-12T07:41:02.757Z,10.70
2023-01-12T07:43:32.863Z,11.50
2023-01-12T07:45:59.953Z,11.50
2023-01-12T07:48:27.117Z,12.40
2023-01-12T07:50:54.199Z,8.50
2023-01-12T07:53:21.195Z,10.10
2023-01-12T07:55:48.126Z,10.20
2023-01-12T07:58:15.384Z,10.30
2023-01-12T08:00:42.309Z,8.70
2023-01-12T08:03:12.004Z,9.50
2023-01-12T08:05:39.615Z,8.30
2023-01-12T08:08:07.176Z,7.90
2023-01-12T08:10:34.269Z,9.20
2023-01-12T08:13:01.582Z,8.80
2023-01-12T08:15:35.542Z,10.70
2023-01-12T08:18:12.500Z,9.30
2023-01-12T08:20:40.373Z,9.10
2023-01-12T08:23:31.770Z,9.50
2023-01-12T08:26:02.145Z,9.00
2023-01-12T08:28:36.354Z,8.20
2023-01-12T08:31:04.738Z,8.30
2023-01-12T08:33:31.735Z,9.80
2023-01-12T08:35:58.894Z,9.90
2023-01-12T08:38:25.915Z,9.60
2023-01-12T08:41:11.524Z,11.90
2023-01-12T08:43:56.904Z,9.90
2023-01-12T08:46:23.946Z,11.60
2023-01-12T08:48:50.975Z,10.10
2023-01-12T08:51:17.867Z,10.60
2023-01-12T08:53:45.073Z,10.20
2023-01-12T08:56:12.045Z,12.50
2023-01-12T08:58:39.091Z,9.90
2023-01-12T09:01:11.698Z,10.30
2023-01-12T09:03:39.176Z,13.00
2023-01-12T09:06:13.532Z,8.50
2023-01-12T09:08:41.319Z,9.60
2023-01-12T09:11:09.966Z,8.50
2023-01-12T09:13:37.631Z,10.40
2023-01-12T09:16:12.636Z,8.00
2023-01-12T09:18:41.136Z,9.50
2023-01-12T09:21:10.964Z,10.50
2023-01-12T09:23:38.671Z,10.30
2023-01-12T09:26:11.010Z,9.60
2023-01-12T09:28:38.445Z,8.00
2023-01-12T09:31:08.385Z,9.90
2023-01-12T09:33:37.239Z,7.90
2023-01-12T09:36:07.383Z,8.70
2023-01-12T09:38:35.599Z,10.00
2023-01-12T09:41:10.393Z,9.50
2023-01-12T09:43:57.863Z,9.50
2023-01-12T09:46:54.927Z,8.80
2023-01-12T09:49:26.489Z,11.20
2023-01-12T09:52:14.823Z,11.30
2023-01-12T09:54:42.179Z,8.00
2023-01-12T09:57:29.019Z,10.70
2023-01-12T10:00:10.288Z,7.60
2023-01-12T10:02:54.099Z,11.90
2023-01-12T10:05:42.958Z,11.30
2023-01-12T10:08:17.576Z,8.60
2023-01-12T10:11:03.869Z,11.00
2023-01-12T10:13:42.257Z,8.80
2023-01-12T10:16:24.870Z,10.80
2023-01-12T10:18:58.529Z,9.20
2023-01-12T10:21:28.182Z,13.40
2023-01-12T10:23:56.081Z,11.20
2023-01-12T10:26:36.324Z,10.20
2023-01-12T10:29:03.379Z,9.70
2023-01-12T10:31:30.372Z,11.10
2023-01-12T10:34:11.404Z,11.80
2023-01-12T10:39:31.403Z,11.30
2023-01-12T10:42:40.375Z,8.70
2023-01-12T10:45:15.881Z,13.00
2023-01-12T10:47:44.638Z,16.10
2023-01-12T10:50:30.812Z,10.10
2023-01-12T10:53:17.141Z,10.80
2023-01-12T10:55:44.893Z,14.10
2023-01-12T10:58:25.244Z,12.00
2023-01-12T11:00:53.556Z,13.90
2023-01-12T11:03:41.455Z,14.30
2023-01-12T11:06:30.407Z,12.40
2023-01-12T11:08:57.573Z,11.50
2023-01-12T11:11:33.697Z,12.80
2023-01-12T11:14:03.699Z,14.70
2023-01-12T11:16:34.096Z,13.10
2023-01-12T11:19:07.139Z,14.30
2023-01-12T11:21:37.577Z,14.20
2023-01-12T11:24:18.227Z,13.60
2023-01-12T11:27:00.094Z,14.90
2023-01-12T11:30:03.312Z,14.70
2023-01-12T11:32:39.118Z,14.60
2023-01-12T11:35:12.124Z,13.40
2023-01-12T11:37:42.124Z,12.10
2023-01-12T11:40:22.249Z,12.80
2023-01-12T11:43:09.078Z,13.60
2023-01-12T11:45:51.771Z,12.60
2023-01-12T11:48:29.508Z,14.40
2023-01-12T11:50:58.829Z,12.90
2023-01-12T11:53:26.189Z,12.00
2023-01-12T11:56:17.217Z,13.80
2023-01-12T12:01:44.965Z,11.60
2023-01-12T12:04:24.352Z,15.40
2023-01-12T12:07:03.389Z,11.40
2023-01-12T12:09:48.457Z,10.60
2023-01-12T12:12:42.464Z,13.20
2023-01-12T12:15:12.465Z,11.20
2023-01-12T12:18:16.647Z,10.20
2023-01-12T12:21:40.970Z,11.90
2023-01-12T12:24:24.892Z,12.40
2023-01-12T12:26:57.397Z,11.70
2023-01-12T12:30:06.940Z,13.30
2023-01-12T12:32:48.649Z,11.00
2023-01-12T12:35:33.923Z,12.40
2023-01-12T12:38:31.453Z,13.90
2023-01-12T12:41:30.016Z,11.50
2023-01-12T12:44:51.903Z,12.30
2023-01-12T12:47:30.963Z,13.20
2023-01-12T12:50:00.052Z,11.30
2023-01-12T12:52:35.487Z,11.10
2023-01-12T12:55:04.513Z,13.30
2023-01-12T12:57:31.618Z,15.00
2023-01-12T13:00:02.252Z,16.60
2023-01-12T13:02:52.137Z,12.00
2023-01-12T13:05:42.378Z,12.00
2023-01-12T13:08:22.740Z,12.70
2023-01-12T13:10:55.735Z,9.80
2023-01-12T13:13:29.581Z,11.10
2023-01-12T13:16:15.022Z,11.70
2023-01-12T13:18:47.999Z,10.90
2023-01-12T13:21:42.884Z,11.90
2023-01-12T13:24:09.828Z,10.30
2023-01-12T13:26:42.744Z,11.50
2023-01-12T13:29:27.654Z,12.10
2023-01-12T13:31:57.664Z,11.20
2023-01-12T13:34:31.264Z,12.80
2023-01-12T13:37:16.538Z,13.90
2023-01-12T13:39:57.734Z,12.30
2023-01-12T13:42:45.666Z,12.90
2023-01-12T13:45:20.666Z,9.00
2023-01-12T13:47:50.986Z,11.80
2023-01-12T13:50:23.991Z,11.60
2023-01-12T13:53:02.587Z,10.20
2023-01-12T13:55:32.953Z,10.80
2023-01-12T13:58:14.763Z,13.30
2023-01-12T14:00:42.282Z,11.20
2023-01-12T14:03:28.985Z,13.20
2023-01-12T14:06:02.180Z,11.70
2023-01-12T14:08:51.291Z,10.90
2023-01-12T14:11:54.515Z,12.60
2023-01-12T14:15:01.818Z,10.80
2023-01-12T14:17:52.610Z,9.30
2023-01-12T14:20:22.471Z,12.30
2023-01-12T14:23:05.273Z,18.00
2023-01-12T14:25:32.192Z,15.30
2023-01-12T14:27:59.641Z,11.30
2023-01-12T14:30:27.685Z,15.80
2023-01-12T14:32:54.745Z,14.70
2023-01-12T14:35:24.729Z,12.00
2023-01-12T14:37:56.321Z,12.20
2023-01-12T14:40:26.950Z,14.50
2023-01-12T14:43:13.078Z,10.40
2023-01-12T14:46:17.265Z,13.30
2023-01-12T14:49:17.197Z,12.20
2023-01-12T14:51:58.615Z,9.60
2023-01-12T14:54:28.968Z,11.90
2023-01-12T14:57:08.103Z,15.40
2023-01-12T14:59:43.176Z,13.00
2023-01-12T15:02:13.215Z,12.60
2023-01-12T15:05:09.615Z,15.30
2023-01-12T15:07:51.869Z,14.30
2023-01-12T15:10:18.821Z,14.30
2023-01-12T15:12:53.961Z,13.30
2023-01-12T15:15:25.778Z,13.60
2023-01-12T15:18:13.765Z,12.40
2023-01-12T15:21:03.767Z,13.10
2023-01-12T15:23:54.215Z,13.50
2023-01-12T15:26:22.003Z,14.60
2023-01-12T15:28:49.461Z,19.00
2023-01-12T15:31:25.659Z,19.00
2023-01-12T15:33:53.157Z,14.90
2023-01-12T15:36:20.688Z,13.90
2023-01-12T15:38:48.005Z,17.80
2023-01-12T15:41:39.203Z,14.30
2023-01-12T15:44:12.046Z,13.20
2023-01-12T15:46:39.676Z,11.80
2023-01-12T15:49:06.749Z,12.70
2023-01-12T15:51:34.723Z,17.80
2023-01-12T15:54:04.455Z,18.30
2023-01-12T15:56:31.452Z,14.40
2023-01-12T15:58:58.494Z,13.50
2023-01-12T16:01:32.916Z,13.40
2023-01-12T16:04:35.566Z,11.20
2023-01-12T16:06:46.898Z,11.60
2023-01-12T16:09:13.863Z,11.40
2023-01-12T16:11:41.864Z,14.50
2023-01-12T16:14:08.865Z,14.10
2023-01-12T16:16:36.116Z,15.50
2023-01-12T16:19:05.965Z,13.90
2023-01-12T16:21:33.715Z,14.50
2023-01-12T16:24:01.729Z,12.80
2023-01-12T16:26:29.656Z,12.10
2023-01-12T16:28:57.412Z,12.60
2023-01-12T16:31:24.967Z,12.80
2023-01-12T16:33:52.086Z,13.20
2023-01-12T16:36:19.089Z,13.30
2023-01-12T16:38:46.145Z,11.20
2023-01-12T16:41:18.494Z,10.50
2023-01-12T16:43:46.108Z,12.50
2023-01-12T16:46:14.246Z,12.30
2023-01-12T16:48:42.617Z,10.90
2023-01-12T16:51:19.342Z,13.40
2023-01-12T16:53:50.862Z,9.90
2023-01-12T16:56:17.962Z,11.60
2023-01-12T16:58:47.661Z,12.80
2023-01-12T17:01:21.940Z,9.60
2023-01-12T17:03:57.032Z,10.50
2023-01-12T17:06:26.326Z,12.30
2023-01-12T17:08:53.855Z,11.40
2023-01-12T17:11:23.648Z,11.90
2023-01-12T17:13:53.729Z,9.50
2023-01-12T17:16:23.051Z,10.80
2023-01-12T17:18:50.424Z,13.20
2023-01-12T17:21:19.059Z,11.80
2023-01-12T17:23:46.466Z,12.80
2023-01-12T17:26:19.798Z,11.20
2023-01-12T17:28:47.189Z,14.00
2023-01-12T17:31:17.029Z,13.00
2023-01-12T17:33:44.563Z,11.30
2023-01-12T17:36:14.069Z,11.40
2023-01-12T17:38:41.083Z,10.50
2023-01-12T17:41:33.737Z,11.60
2023-01-12T17:44:04.654Z,12.10
2023-01-12T17:49:00.618Z,10.60
2023-01-12T17:51:27.929Z,11.70
2023-01-12T17:53:55.759Z,13.60
2023-01-12T17:56:23.847Z,11.40
2023-01-12T17:58:54.584Z,11.40
2023-01-12T18:01:23.658Z,10.90
2023-01-12T18:03:50.971Z,11.30
2023-01-12T18:06:26.402Z,14.10
2023-01-12T18:08:59.193Z,12.40
2023-01-12T18:11:27.734Z,11.40
2023-01-12T18:13:55.273Z,13.60
2023-01-12T18:16:23.312Z,14.90
2023-01-12T18:18:51.343Z,15.20
2023-01-12T18:21:21.901Z,16.60
2023-01-12T18:23:50.556Z,18.20
2023-01-12T18:26:24.715Z,17.30
2023-01-12T18:28:53.059Z,14.90
2023-01-12T18:31:23.058Z,16.90
2023-01-12T18:33:53.829Z,12.30
2023-01-12T18:36:23.415Z,13.70
2023-01-12T18:38:51.886Z,11.60
2023-01-12T18:41:38.751Z,12.60
2023-01-12T18:44:06.846Z,11.50
2023-01-12T18:46:54.753Z,14.00
2023-01-12T18:49:23.393Z,15.60
2023-01-12T18:52:09.391Z,16.60
2023-01-12T18:54:42.952Z,14.00
2023-01-12T18:57:11.451Z,15.60
2023-01-12T18:59:40.386Z,19.40
2023-01-12T19:02:14.057Z,18.10
2023-01-12T19:05:06.987Z,13.00
2023-01-12T19:07:59.665Z,16.20
2023-01-12T19:10:28.875Z,19.20
2023-01-12T19:13:15.391Z,21.50
2023-01-12T19:16:00.765Z,16.70
2023-01-12T19:18:28.120Z,17.70
2023-01-12T19:21:15.274Z,17.70
2023-01-12T19:24:00.894Z,20.60
2023-01-12T19:26:46.467Z,18.60
2023-01-12T19:29:13.385Z,15.90
2023-01-12T19:31:40.438Z,13.70
2023-01-12T19:34:07.564Z,14.20
2023-01-12T19:36:36.168Z,14.10
2023-01-12T19:39:06.241Z,15.90
2023-01-12T19:41:52.736Z,13.90
2023-01-12T19:44:19.794Z,16.50
2023-01-12T19:46:46.953Z,16.60
2023-01-12T19:49:16.275Z,18.30
2023-01-12T19:51:45.526Z,15.50
2023-01-12T19:54:12.707Z,16.20
2023-01-12T19:56:39.756Z,15.40
2023-01-12T19:59:06.759Z,13.90
2023-01-12T20:01:33.909Z,17.10
2023-01-12T20:04:00.878Z,12.70
2023-01-12T20:06:28.435Z,14.20
2023-01-12T20:08:55.356Z,16.50
2023-01-12T20:11:22.400Z,14.80
2023-01-12T20:13:49.387Z,14.60
2023-01-12T20:16:16.783Z,15.60
2023-01-12T20:18:43.988Z,14.60
2023-01-12T20:21:11.985Z,16.00
2023-01-12T20:23:39.113Z,14.00
2023-01-12T20:26:07.798Z,15.30
2023-01-12T20:28:35.319Z,18.20
2023-01-12T20:31:08.971Z,18.60
2023-01-12T20:33:36.027Z,14.20
2023-01-12T20:36:03.174Z,12.40
2023-01-12T20:38:30.215Z,12.90
2023-01-12T20:40:57.561Z,11.60
2023-01-12T20:43:24.523Z,13.40
2023-01-12T20:45:51.990Z,13.40
2023-01-12T20:48:18.913Z,14.00
2023-01-12T20:50:46.137Z,17.70
2023-01-12T20:53:13.995Z,18.20
2023-01-12T20:55:47.835Z,15.10
2023-01-12T20:58:15.197Z,14.30
2023-01-12T21:00:42.374Z,14.90
2023-01-12T21:03:09.370Z,13.90
2023-01-12T21:05:40.872Z,14.30
2023-01-12T21:08:08.734Z,15.20
2023-01-12T21:10:37.957Z,15.90
2023-01-12T21:13:06.225Z,14.40
2023-01-12T21:15:33.450Z,15.40
2023-01-12T21:18:00.411Z,18.10
2023-01-12T21:20:27.558Z,17.60
2023-01-12T21:22:54.809Z,18.40
2023-01-12T21:25:25.440Z,19.60
2023-01-12T21:27:52.405Z,21.90
2023-01-12T21:30:19.519Z,16.50
2023-01-12T21:32:48.040Z,15.60
2023-01-12T21:35:15.256Z,16.70
2023-01-12T21:37:42.239Z,17.30
2023-01-12T21:40:09.973Z,16.30
2023-01-12T21:42:55.385Z,16.80
2023-01-12T21:45:23.241Z,15.60
2023-01-12T21:47:50.192Z,16.80
2023-01-12T21:50:17.206Z,16.00
2023-01-12T21:52:44.476Z,13.20
2023-01-12T21:55:13.084Z,14.00
2023-01-12T21:57:41.411Z,14.20
2023-01-12T22:00:09.955Z,12.80
2023-01-12T22:02:41.004Z,15.20
2023-01-12T22:05:09.760Z,15.00
2023-01-12T22:07:36.714Z,19.00
2023-01-12T22:10:18.627Z,15.00
2023-01-12T22:12:47.382Z,15.40
2023-01-12T22:15:15.007Z,15.00
2023-01-12T22:17:42.335Z,14.00
2023-01-12T22:20:10.989Z,13.40
2023-01-12T22:22:38.334Z,13.10
2023-01-12T22:25:10.423Z,16.60
2023-01-12T22:27:38.164Z,16.30
2023-01-12T22:30:05.983Z,18.10
2023-01-12T22:32:32.985Z,19.30
2023-01-12T22:35:00.016Z,16.50
2023-01-12T22:37:33.227Z,18.00
2023-01-12T22:40:00.193Z,19.00
2023-01-12T22:42:45.548Z,20.50
2023-01-12T22:45:13.610Z,22.90
2023-01-12T22:47:48.070Z,21.10
2023-01-12T22:50:15.872Z,20.20
2023-01-12T22:52:42.975Z,21.40
2023-01-12T22:55:09.938Z,21.50
2023-01-12T22:57:37.306Z,25.50
2023-01-12T23:00:04.607Z,19.80
2023-01-12T23:02:50.305Z,22.30
2023-01-12T23:05:17.341Z,18.10
2023-01-12T23:07:44.278Z,19.70
2023-01-12T23:10:11.184Z,21.70
2023-01-12T23:12:38.115Z,20.10
2023-01-12T23:15:05.613Z,19.10
2023-01-12T23:17:32.942Z,27.40
2023-01-12T23:19:59.863Z,25.60
2023-01-12T23:22:30.977Z,21.60
2023-01-12T23:24:57.925Z,24.00
2023-01-12T23:27:24.909Z,24.00
2023-01-12T23:29:51.787Z,22.70
2023-01-12T23:32:18.686Z,22.90
2023-01-12T23:34:45.588Z,18.70
2023-01-12T23:37:12.470Z,22.40
2023-01-12T23:39:39.382Z,22.70
2023-01-12T23:42:06.340Z,20.60
2023-01-12T23:44:33.371Z,18.40
2023-01-12T23:47:00.584Z,17.60
2023-01-12T23:49:27.491Z,17.80
2023-01-12T23:51:54.382Z,24.00
2023-01-12T23:54:21.325Z,22.90
2023-01-12T23:56:54.278Z,27.60
2023-01-12T23:59:21.187Z,20.10
